Time,TemperatureF,DewpointF,PressureIn,WindDirection,WindDirectionDegrees,WindSpeedMPH,WindSpeedGustMPH,Humidity,HourlyPrecipIn,Conditions,Clouds,dailyrainin,SoftwareType,DateUTC
2013-05-24 00:01:00,79.4,71.5,29.97,ESE,111,1.0,3.0,77,0.00,,,0.00,WeatherCatV1.13B119,2013-05-24 05:01:00,
2013-05-24 00:06:00,79.4,71.5,29.97,SE,139,0.0,4.0,77,0.00,,,0.00,WeatherCatV1.13B119,2013-05-24 05:06:00,
2013-05-24 00:11:00,79.3,71.4,29.96,ESE,114,2.0,3.0,77,0.00,,,0.00,WeatherCatV1.13B119,2013-05-24 05:11:00,
2013-05-24 00:16:00,79.3,71.4,29.96,ESE,108,1.0,2.0,77,0.00,,,0.00,WeatherCatV1.13B119,2013-05-24 05:16:00,
2013-05-24 00:21:00,79.2,71.7,29.96,ESE,112,1.0,2.0,78,0.00,,,0.00,WeatherCatV1.13B119,2013-05-24 05:21:00,
2013-05-24 00:26:00,79.0,71.5,29.97,ESE,110,1.0,2.0,78,0.00,,,0.00,WeatherCatV1.13B119,2013-05-24 05:26:00,
2013-05-24 00:31:00,79.0,71.5,29.96,SE,127,4.0,4.0,78,0.00,,,0.00,WeatherCatV1.13B119,2013-05-24 05:31:00,
2013-05-24 00:36:00,79.0,71.5,29.96,ESE,103,2.0,3.0,78,0.00,,,0.00,WeatherCatV1.13B119,2013-05-24 05:36:00,
2013-05-24 00:41:00,79.0,71.5,29.96,SE,131,1.0,3.0,78,0.00,,,0.00,WeatherCatV1.13B119,2013-05-24 05:41:00,
2013-05-24 00:46:00,78.9,71.1,29.96,ESE,109,7.0,7.0,77,0.00,,,0.00,WeatherCatV1.13B119,2013-05-24 05:46:00,
2013-05-24 00:51:00,78.9,71.1,29.95,ESE,117,4.0,9.0,77,0.00,,,0.00,WeatherCatV1.13B119,2013-05-24 05:51:00,
2013-05-24 00:56:00,78.8,71.3,29.96,ESE,113,1.0,3.0,78,0.00,,,0.00,WeatherCatV1.13B119,2013-05-24 05:56:00,
2013-05-24 01:01:00,78.6,71.1,29.95,ESE,107,3.0,8.0,78,0.00,,,0.00,WeatherCatV1.13B119,2013-05-24 06:01:00,
2013-05-24 01:06:00,78.5,71.1,29.95,ESE,121,2.0,6.0,78,0.00,,,0.00,WeatherCatV1.13B119,2013-05-24 06:06:00,
2013-05-24 01:11:00,78.3,71.2,29.95,ESE,118,4.0,5.0,79,0.00,,,0.00,WeatherCatV1.13B119,2013-05-24 06:11:00,
2013-05-24 01:16:00,78.1,71.4,29.96,ESE,113,1.0,2.0,80,0.00,,,0.00,WeatherCatV1.13B119,2013-05-24 06:16:00,
2013-05-24 01:21:00,77.9,71.2,29.96,ESE,116,2.0,3.0,80,0.00,,,0.00,WeatherCatV1.13B119,2013-05-24 06:21:00,
2013-05-24 01:26:00,77.8,71.1,29.96,SE,124,1.0,3.0,80,0.00,,,0.00,WeatherCatV1.13B119,2013-05-24 06:26:00,
2013-05-24 01:31:00,77.7,71.4,29.96,SE,124,1.0,2.0,81,0.00,,,0.00,WeatherCatV1.13B119,2013-05-24 06:31:00,
2013-05-24 01:36:00,77.5,71.2,29.96,ESE,111,1.0,2.0,81,0.00,,,0.00,WeatherCatV1.13B119,2013-05-24 06:36:00,
2013-05-24 01:41:00,77.4,71.5,29.96,ESE,117,1.0,2.0,82,0.00,,,0.00,WeatherCatV1.13B119,2013-05-24 06:41:00,
2013-05-24 01:46:00,77.2,71.3,29.97,ESE,118,1.0,3.0,82,0.00,,,0.00,WeatherCatV1.13B119,2013-05-24 06:46:00,
2013-05-24 01:51:00,77.1,71.2,29.97,SE,145,1.0,3.0,82,0.00,,,0.00,WeatherCatV1.13B119,2013-05-24 06:51:00,
2013-05-24 01:55:00,77.0,71.1,29.98,East,101,2.0,2.0,82,0.00,,,0.00,WeatherCatV1.13B119,2013-05-24 06:55:00,
2013-05-24 02:00:00,76.9,71.0,29.98,SSW,193,5.0,6.0,82,0.00,,,0.00,WeatherCatV1.13B119,2013-05-24 07:00:00,
2013-05-24 02:05:00,76.9,71.0,29.98,SSE,149,2.0,3.0,82,0.00,,,0.00,WeatherCatV1.13B119,2013-05-24 07:05:00,
2013-05-24 02:10:00,76.7,70.8,29.98,SSE,149,0.0,2.0,82,0.00,,,0.00,WeatherCatV1.13B119,2013-05-24 07:10:00,
2013-05-24 02:15:00,76.6,70.7,29.98,SSE,158,0.0,4.0,82,0.00,,,0.00,WeatherCatV1.13B119,2013-05-24 07:15:00,
2013-05-24 02:20:00,76.4,70.8,29.98,ESE,123,0.0,2.0,83,0.00,,,0.00,WeatherCatV1.13B119,2013-05-24 07:20:00,
2013-05-24 02:25:00,76.3,70.7,29.97,SE,142,2.0,2.0,83,0.00,,,0.00,WeatherCatV1.13B119,2013-05-24 07:25:00,
2013-05-24 02:30:00,76.2,70.6,29.97,SSE,162,1.0,4.0,83,0.00,,,0.00,WeatherCatV1.13B119,2013-05-24 07:30:00,
2013-05-24 02:35:00,76.1,70.5,29.96,ESE,116,1.0,3.0,83,0.00,,,0.00,WeatherCatV1.13B119,2013-05-24 07:35:00,
2013-05-24 02:40:00,76.0,70.8,29.96,SSE,156,1.0,3.0,84,0.00,,,0.00,WeatherCatV1.13B119,2013-05-24 07:40:00,
2013-05-24 02:45:00,75.9,70.7,29.95,SSE,153,3.0,7.0,84,0.00,,,0.00,WeatherCatV1.13B119,2013-05-24 07:45:00,
2013-05-24 02:50:00,75.8,70.6,29.95,ESE,110,1.0,4.0,84,0.00,,,0.00,WeatherCatV1.13B119,2013-05-24 07:50:00,
2013-05-24 02:55:00,75.8,70.6,29.95,ESE,110,1.0,2.0,84,0.00,,,0.00,WeatherCatV1.13B119,2013-05-24 07:55:00,
2013-05-24 03:00:00,75.7,70.5,29.97,WSW,255,4.0,6.0,84,0.00,,,0.00,WeatherCatV1.13B119,2013-05-24 08:00:00,
2013-05-24 03:05:00,75.7,70.9,29.97,SE,137,1.0,3.0,85,0.00,,,0.00,WeatherCatV1.13B119,2013-05-24 08:05:00,
2013-05-24 03:10:00,75.6,70.8,29.98,SE,130,1.0,6.0,85,0.00,,,0.00,WeatherCatV1.13B119,2013-05-24 08:10:00,
2013-05-24 03:15:00,75.6,70.8,29.99,SE,141,2.0,7.0,85,0.00,,,0.00,WeatherCatV1.13B119,2013-05-24 08:15:00,
2013-05-24 03:20:00,75.5,70.7,29.99,SW,217,0.0,3.0,85,0.00,,,0.00,WeatherCatV1.13B119,2013-05-24 08:20:00,
2013-05-24 03:25:00,75.5,70.7,29.98,SSW,199,2.0,5.0,85,0.00,,,0.00,WeatherCatV1.13B119,2013-05-24 08:25:00,
2013-05-24 03:30:00,75.5,71.0,29.98,SSW,210,3.0,8.0,86,0.00,,,0.00,WeatherCatV1.13B119,2013-05-24 08:30:00,
2013-05-24 03:35:00,75.4,70.9,29.98,SSE,157,3.0,4.0,86,0.00,,,0.00,WeatherCatV1.13B119,2013-05-24 08:35:00,
2013-05-24 03:40:00,75.3,70.8,29.97,SSE,159,1.0,2.0,86,0.00,,,0.00,WeatherCatV1.13B119,2013-05-24 08:40:00,
2013-05-24 03:45:00,75.2,70.7,29.96,East,86,1.0,3.0,86,0.00,,,0.00,WeatherCatV1.13B119,2013-05-24 08:45:00,
2013-05-24 03:50:00,75.1,71.0,29.96,SE,139,1.0,3.0,87,0.00,,,0.00,WeatherCatV1.13B119,2013-05-24 08:50:00,
2013-05-24 03:55:00,75.1,71.0,29.96,SSE,155,1.0,4.0,87,0.00,,,0.00,WeatherCatV1.13B119,2013-05-24 08:55:00,
2013-05-24 04:00:00,75.0,70.9,29.95,SE,145,2.0,2.0,87,0.00,,,0.00,WeatherCatV1.13B119,2013-05-24 09:00:00,
2013-05-24 04:05:00,75.0,70.9,29.95,SSW,196,2.0,4.0,87,0.00,,,0.00,WeatherCatV1.13B119,2013-05-24 09:05:00,
2013-05-24 04:10:00,75.0,70.9,29.96,SW,223,1.0,5.0,87,0.00,,,0.00,WeatherCatV1.13B119,2013-05-24 09:10:00,
2013-05-24 04:15:00,75.0,70.9,29.96,SSE,154,3.0,4.0,87,0.00,,,0.00,WeatherCatV1.13B119,2013-05-24 09:15:00,
2013-05-24 04:20:00,75.0,70.9,29.95,SE,140,1.0,2.0,87,0.00,,,0.00,WeatherCatV1.13B119,2013-05-24 09:20:00,
2013-05-24 04:25:00,74.9,70.8,29.95,SSE,158,0.0,4.0,87,0.00,,,0.00,WeatherCatV1.13B119,2013-05-24 09:25:00,
2013-05-24 04:30:00,74.9,70.8,29.95,South,174,0.0,3.0,87,0.00,,,0.00,WeatherCatV1.13B119,2013-05-24 09:30:00,
2013-05-24 04:35:00,74.9,70.8,29.95,SE,143,0.0,1.0,87,0.00,,,0.00,WeatherCatV1.13B119,2013-05-24 09:35:00,
2013-05-24 04:40:00,74.9,70.8,29.95,SE,131,0.0,1.0,87,0.00,,,0.00,WeatherCatV1.13B119,2013-05-24 09:40:00,
2013-05-24 04:45:00,74.8,70.7,29.95,SE,146,0.0,2.0,87,0.00,,,0.00,WeatherCatV1.13B119,2013-05-24 09:45:00,
2013-05-24 04:50:00,74.8,71.0,29.95,South,173,0.0,2.0,88,0.00,,,0.00,WeatherCatV1.13B119,2013-05-24 09:50:00,
2013-05-24 04:55:00,74.8,71.0,29.96,SW,217,0.0,3.0,88,0.00,,,0.00,WeatherCatV1.13B119,2013-05-24 09:55:00,
2013-05-24 05:00:00,74.7,70.9,29.96,SSW,194,2.0,4.0,88,0.00,,,0.00,WeatherCatV1.13B119,2013-05-24 10:00:00,
2013-05-24 05:05:00,74.8,71.0,29.95,SE,146,1.0,2.0,88,0.00,,,0.00,WeatherCatV1.13B119,2013-05-24 10:05:00,
2013-05-24 05:10:00,74.7,70.9,29.95,SE,138,0.0,1.0,88,0.00,,,0.00,WeatherCatV1.13B119,2013-05-24 10:10:00,
2013-05-24 05:15:00,74.7,70.9,29.95,ESE,109,1.0,1.0,88,0.00,,,0.00,WeatherCatV1.13B119,2013-05-24 10:15:00,
2013-05-24 05:20:00,74.6,70.8,29.95,SSE,150,1.0,4.0,88,0.00,,,0.00,WeatherCatV1.13B119,2013-05-24 10:20:00,
2013-05-24 05:25:00,74.6,70.8,29.95,SE,144,0.0,2.0,88,0.00,,,0.00,WeatherCatV1.13B119,2013-05-24 10:25:00,
2013-05-24 05:30:00,74.6,71.1,29.96,SE,135,0.0,1.0,89,0.00,,,0.00,WeatherCatV1.13B119,2013-05-24 10:30:00,
2013-05-24 05:35:00,74.6,71.1,29.96,SE,135,0.0,0.0,89,0.00,,,0.00,WeatherCatV1.13B119,2013-05-24 10:35:00,
2013-05-24 05:40:00,74.7,71.2,29.96,SE,136,1.0,2.0,89,0.00,,,0.00,WeatherCatV1.13B119,2013-05-24 10:40:00,
2013-05-24 05:45:00,74.8,71.0,29.96,ESE,117,2.0,2.0,88,0.00,,,0.00,WeatherCatV1.13B119,2013-05-24 10:45:00,
2013-05-24 05:50:00,74.8,71.0,29.96,ESE,120,1.0,4.0,88,0.00,,,0.00,WeatherCatV1.13B119,2013-05-24 10:50:00,
2013-05-24 05:55:00,74.8,71.0,29.96,SE,128,0.0,0.0,88,0.00,,,0.00,WeatherCatV1.13B119,2013-05-24 10:55:00,
2013-05-24 06:00:00,74.7,70.9,29.97,SSW,192,1.0,2.0,88,0.00,,,0.00,WeatherCatV1.13B119,2013-05-24 11:00:00,
2013-05-24 06:05:00,74.7,70.9,29.97,SSW,213,3.0,3.0,88,0.00,,,0.00,WeatherCatV1.13B119,2013-05-24 11:05:00,
2013-05-24 06:14:00,74.6,70.8,29.97,ESE,122,1.0,2.0,88,0.00,,,0.00,WeatherCatV1.13B119,2013-05-24 11:14:00,
2013-05-24 06:19:00,74.6,70.8,29.97,SE,144,0.0,1.0,88,0.00,,,0.00,WeatherCatV1.13B119,2013-05-24 11:19:00,
2013-05-24 06:24:00,74.6,70.8,29.96,SSW,205,4.0,4.0,88,0.00,,,0.00,WeatherCatV1.13B119,2013-05-24 11:24:00,
2013-05-24 06:29:00,74.6,70.8,29.96,South,186,1.0,4.0,88,0.00,,,0.00,WeatherCatV1.13B119,2013-05-24 11:29:00,
2013-05-24 06:34:00,74.6,70.8,29.96,South,177,0.0,2.0,88,0.00,,,0.00,WeatherCatV1.13B119,2013-05-24 11:34:00,
2013-05-24 06:39:00,74.5,70.7,29.96,SSW,202,2.0,3.0,88,0.00,,,0.00,WeatherCatV1.13B119,2013-05-24 11:39:00,
2013-05-24 06:44:00,74.4,70.9,29.97,SSE,167,0.0,0.0,89,0.00,,,0.00,WeatherCatV1.13B119,2013-05-24 11:44:00,
2013-05-24 06:49:00,74.4,70.9,29.97,SSW,195,0.0,1.0,89,0.00,,,0.00,WeatherCatV1.13B119,2013-05-24 11:49:00,
2013-05-24 06:54:00,74.4,70.9,29.97,SE,141,0.0,1.0,89,0.00,,,0.00,WeatherCatV1.13B119,2013-05-24 11:54:00,
2013-05-24 06:59:00,74.4,70.9,29.98,SW,230,0.0,0.0,89,0.00,,,0.00,WeatherCatV1.13B119,2013-05-24 11:59:00,
2013-05-24 07:04:00,74.4,70.9,29.98,SW,226,0.0,0.0,89,0.00,,,0.00,WeatherCatV1.13B119,2013-05-24 12:04:00,
2013-05-24 07:09:00,74.4,70.9,29.98,SW,226,0.0,0.0,89,0.00,,,0.00,WeatherCatV1.13B119,2013-05-24 12:09:00,
2013-05-24 07:14:00,74.4,70.9,29.98,SW,226,0.0,0.0,89,0.00,,,0.00,WeatherCatV1.13B119,2013-05-24 12:14:00,
2013-05-24 07:19:00,74.4,70.9,29.98,SW,223,0.0,0.0,89,0.00,,,0.00,WeatherCatV1.13B119,2013-05-24 12:19:00,
2013-05-24 07:24:00,74.4,70.9,29.99,SW,223,0.0,0.0,89,0.00,,,0.00,WeatherCatV1.13B119,2013-05-24 12:24:00,
2013-05-24 07:29:00,74.4,70.9,29.99,SW,223,0.0,0.0,89,0.00,,,0.00,WeatherCatV1.13B119,2013-05-24 12:29:00,
2013-05-24 07:34:00,74.5,71.0,29.99,SW,223,0.0,0.0,89,0.00,,,0.00,WeatherCatV1.13B119,2013-05-24 12:34:00,
2013-05-24 07:39:00,74.6,70.8,29.99,SW,223,0.0,0.0,88,0.00,,,0.00,WeatherCatV1.13B119,2013-05-24 12:39:00,
2013-05-24 07:44:00,74.7,71.2,30.00,SW,223,0.0,0.0,89,0.00,,,0.00,WeatherCatV1.13B119,2013-05-24 12:44:00,
2013-05-24 07:49:00,74.7,71.2,30.00,SW,223,0.0,0.0,89,0.00,,,0.00,WeatherCatV1.13B119,2013-05-24 12:49:00,
2013-05-24 07:54:00,74.8,71.3,30.00,SW,223,0.0,0.0,89,0.00,,,0.00,WeatherCatV1.13B119,2013-05-24 12:54:00,
2013-05-24 07:59:00,74.9,71.4,30.01,SW,223,0.0,0.0,89,0.00,,,0.00,WeatherCatV1.13B119,2013-05-24 12:59:00,
2013-05-24 08:04:00,75.0,71.5,30.01,SW,223,0.0,0.0,89,0.00,,,0.00,WeatherCatV1.13B119,2013-05-24 13:04:00,
2013-05-24 08:09:00,75.1,71.3,30.02,SW,223,0.0,0.0,88,0.00,,,0.00,WeatherCatV1.13B119,2013-05-24 13:09:00,
2013-05-24 08:14:00,75.2,71.4,30.02,SW,223,0.0,0.0,88,0.00,,,0.00,WeatherCatV1.13B119,2013-05-24 13:14:00,
2013-05-24 08:19:00,75.3,71.5,30.02,SW,223,0.0,0.0,88,0.00,,,0.00,WeatherCatV1.13B119,2013-05-24 13:19:00,
2013-05-24 08:24:00,75.5,71.7,30.02,SW,223,0.0,0.0,88,0.00,,,0.00,WeatherCatV1.13B119,2013-05-24 13:24:00,
2013-05-24 08:29:00,75.5,71.3,30.02,SE,133,0.0,0.0,87,0.00,,,0.00,WeatherCatV1.13B119,2013-05-24 13:29:00,
2013-05-24 08:34:00,75.6,71.4,30.02,SE,133,0.0,0.0,87,0.00,,,0.00,WeatherCatV1.13B119,2013-05-24 13:34:00,
2013-05-24 08:39:00,75.7,71.5,30.02,SE,133,0.0,0.0,87,0.00,,,0.00,WeatherCatV1.13B119,2013-05-24 13:39:00,
2013-05-24 08:44:00,75.8,71.6,30.03,SE,133,0.0,0.0,87,0.00,,,0.00,WeatherCatV1.13B119,2013-05-24 13:44:00,
2013-05-24 08:49:00,75.9,71.4,30.03,SE,133,0.0,0.0,86,0.00,,,0.00,WeatherCatV1.13B119,2013-05-24 13:49:00,
2013-05-24 08:54:00,76.0,71.5,30.03,SE,133,0.0,0.0,86,0.00,,,0.00,WeatherCatV1.13B119,2013-05-24 13:54:00,
2013-05-24 08:59:00,76.1,71.9,30.03,ESE,106,0.0,0.0,87,0.00,,,0.00,WeatherCatV1.13B119,2013-05-24 13:59:00,
2013-05-24 09:04:00,76.2,71.7,30.03,ESE,106,0.0,0.0,86,0.00,,,0.00,WeatherCatV1.13B119,2013-05-24 14:04:00,
2013-05-24 09:09:00,76.4,72.2,30.04,ESE,106,0.0,0.0,87,0.00,,,0.00,WeatherCatV1.13B119,2013-05-24 14:09:00,
2013-05-24 09:14:00,76.4,71.9,30.04,ESE,105,0.0,0.0,86,0.00,,,0.00,WeatherCatV1.13B119,2013-05-24 14:14:00,
2013-05-24 09:19:00,76.5,72.3,30.04,East,89,0.0,0.0,87,0.00,,,0.00,WeatherCatV1.13B119,2013-05-24 14:19:00,
2013-05-24 09:24:00,76.5,72.0,30.04,ESE,122,0.0,0.0,86,0.00,,,0.00,WeatherCatV1.13B119,2013-05-24 14:24:00,
2013-05-24 09:29:00,76.5,72.0,30.04,ESE,115,0.0,0.0,86,0.00,,,0.00,WeatherCatV1.13B119,2013-05-24 14:29:00,
2013-05-24 09:34:00,76.6,72.1,30.04,SE,126,0.0,0.0,86,0.00,,,0.00,WeatherCatV1.13B119,2013-05-24 14:34:00,
2013-05-24 09:39:00,76.6,72.1,30.04,SE,129,0.0,2.0,86,0.00,,,0.00,WeatherCatV1.13B119,2013-05-24 14:39:00,
2013-05-24 09:44:00,76.6,72.1,30.04,SE,144,0.0,1.0,86,0.00,,,0.00,WeatherCatV1.13B119,2013-05-24 14:44:00,
2013-05-24 09:49:00,76.6,72.1,30.04,ESE,113,0.0,1.0,86,0.00,,,0.00,WeatherCatV1.13B119,2013-05-24 14:49:00,
2013-05-24 09:54:00,76.6,72.1,30.04,ESE,121,0.0,0.0,86,0.00,,,0.00,WeatherCatV1.13B119,2013-05-24 14:54:00,
2013-05-24 09:59:00,76.6,72.4,30.05,ESE,117,0.0,2.0,87,0.00,,,0.00,WeatherCatV1.13B119,2013-05-24 14:59:00,
2013-05-24 10:04:00,76.6,72.4,30.05,SE,124,0.0,1.0,87,0.00,,,0.00,WeatherCatV1.13B119,2013-05-24 15:04:00,
2013-05-24 10:09:00,76.7,72.5,30.05,East,97,1.0,1.0,87,0.00,,,0.00,WeatherCatV1.13B119,2013-05-24 15:09:00,
2013-05-24 10:14:00,76.8,72.6,30.05,ESE,116,1.0,2.0,87,0.00,,,0.00,WeatherCatV1.13B119,2013-05-24 15:14:00,
2013-05-24 10:19:00,77.1,72.9,30.05,ESE,102,0.0,1.0,87,0.00,,,0.00,WeatherCatV1.13B119,2013-05-24 15:19:00,
2013-05-24 10:24:00,77.2,72.3,30.04,ESE,113,1.0,2.0,85,0.00,,,0.00,WeatherCatV1.13B119,2013-05-24 15:24:00,
2013-05-24 10:29:00,77.4,72.5,30.04,East,95,1.0,2.0,85,0.00,,,0.00,WeatherCatV1.13B119,2013-05-24 15:29:00,
2013-05-24 10:34:00,77.5,72.6,30.04,SE,139,1.0,1.0,85,0.00,,,0.00,WeatherCatV1.13B119,2013-05-24 15:34:00,
2013-05-24 10:39:00,77.7,72.8,30.04,East,92,2.0,2.0,85,0.00,,,0.00,WeatherCatV1.13B119,2013-05-24 15:39:00,
2013-05-24 10:44:00,78.2,73.7,30.04,ESE,118,0.0,1.0,86,0.00,,,0.00,WeatherCatV1.13B119,2013-05-24 15:44:00,
2013-05-24 10:49:00,78.6,73.3,30.04,ESE,121,0.0,1.0,84,0.00,,,0.00,WeatherCatV1.13B119,2013-05-24 15:49:00,
2013-05-24 10:54:00,78.8,72.8,30.04,ESE,110,1.0,2.0,82,0.00,,,0.00,WeatherCatV1.13B119,2013-05-24 15:54:00,
2013-05-24 10:59:00,79.1,73.1,30.04,SE,143,2.0,5.0,82,0.00,,,0.00,WeatherCatV1.13B119,2013-05-24 15:59:00,
2013-05-24 11:04:00,79.2,72.8,30.05,SE,128,5.0,6.0,81,0.00,,,0.00,WeatherCatV1.13B119,2013-05-24 16:04:00,
2013-05-24 11:09:00,79.3,72.9,30.05,ESE,108,1.0,6.0,81,0.00,,,0.00,WeatherCatV1.13B119,2013-05-24 16:09:00,
2013-05-24 11:14:00,79.5,73.5,30.05,ESE,104,1.0,3.0,82,0.00,,,0.00,WeatherCatV1.13B119,2013-05-24 16:14:00,
2013-05-24 11:19:00,79.8,73.1,30.04,ESE,103,1.0,3.0,80,0.00,,,0.00,WeatherCatV1.13B119,2013-05-24 16:19:00,
2013-05-24 11:24:00,80.5,73.7,30.05,ESE,120,1.0,4.0,80,0.00,,,0.00,WeatherCatV1.13B119,2013-05-24 16:24:00,
2013-05-24 11:29:00,81.0,73.9,30.05,ESE,115,3.0,4.0,79,0.00,,,0.00,WeatherCatV1.13B119,2013-05-24 16:29:00,
2013-05-24 11:34:00,81.0,73.5,30.05,SE,126,2.0,2.0,78,0.00,,,0.00,WeatherCatV1.13B119,2013-05-24 16:34:00,
2013-05-24 11:39:00,80.9,73.4,30.05,ESE,122,1.0,1.0,78,0.00,,,0.00,WeatherCatV1.13B119,2013-05-24 16:39:00,
2013-05-24 11:44:00,80.8,72.9,30.05,South,191,0.0,3.0,77,0.00,,,0.00,WeatherCatV1.13B119,2013-05-24 16:44:00,
2013-05-24 11:49:00,80.8,72.5,30.04,ESE,108,3.0,3.0,76,0.00,,,0.00,WeatherCatV1.13B119,2013-05-24 16:49:00,
2013-05-24 11:54:00,81.1,72.8,30.04,ESE,115,3.0,4.0,76,0.00,,,0.00,WeatherCatV1.13B119,2013-05-24 16:54:00,
2013-05-24 11:59:00,81.7,73.0,30.04,SE,128,1.0,3.0,75,0.00,,,0.00,WeatherCatV1.13B119,2013-05-24 16:59:00,
2013-05-24 12:04:00,82.1,72.6,30.04,East,87,3.0,3.0,73,0.00,,,0.00,WeatherCatV1.13B119,2013-05-24 17:04:00,
2013-05-24 12:09:00,81.9,72.4,30.04,East,99,1.0,5.0,73,0.00,,,0.00,WeatherCatV1.13B119,2013-05-24 17:09:00,
2013-05-24 12:14:00,81.8,72.7,30.04,ESE,115,5.0,5.0,74,0.00,,,0.00,WeatherCatV1.13B119,2013-05-24 17:14:00,
2013-05-24 12:19:00,81.6,72.1,30.04,ESE,108,1.0,2.0,73,0.00,,,0.00,WeatherCatV1.13B119,2013-05-24 17:19:00,
2013-05-24 12:24:00,81.6,72.1,30.04,ESE,117,0.0,5.0,73,0.00,,,0.00,WeatherCatV1.13B119,2013-05-24 17:24:00,
2013-05-24 12:29:00,82.2,73.1,30.03,SE,127,2.0,4.0,74,0.00,,,0.00,WeatherCatV1.13B119,2013-05-24 17:29:00,
2013-05-24 12:34:00,82.5,72.9,30.03,ESE,120,2.0,3.0,73,0.00,,,0.00,WeatherCatV1.13B119,2013-05-24 17:34:00,
2013-05-24 12:39:00,83.1,73.5,30.03,SE,140,3.0,3.0,73,0.00,,,0.00,WeatherCatV1.13B119,2013-05-24 17:39:00,
2013-05-24 12:44:00,83.1,72.7,30.03,ESE,117,1.0,4.0,71,0.00,,,0.00,WeatherCatV1.13B119,2013-05-24 17:44:00,
2013-05-24 12:49:00,83.5,73.5,30.03,NNE,27,3.0,4.0,72,0.00,,,0.00,WeatherCatV1.13B119,2013-05-24 17:49:00,
2013-05-24 12:54:00,83.8,72.5,30.02,ESE,102,5.0,7.0,69,0.00,,,0.00,WeatherCatV1.13B119,2013-05-24 17:54:00,
2013-05-24 12:59:00,83.7,72.4,30.02,ESE,112,3.0,3.0,69,0.00,,,0.00,WeatherCatV1.13B119,2013-05-24 17:59:00,
2013-05-24 13:04:00,83.4,71.7,30.02,ENE,63,4.0,7.0,68,0.00,,,0.00,WeatherCatV1.13B119,2013-05-24 18:04:00,
2013-05-24 13:09:00,82.5,72.5,30.02,ESE,117,5.0,5.0,72,0.00,,,0.00,WeatherCatV1.13B119,2013-05-24 18:09:00,
2013-05-24 13:14:00,81.2,72.9,30.02,East,93,3.0,7.0,76,0.00,,,0.00,WeatherCatV1.13B119,2013-05-24 18:14:00,
2013-05-24 13:19:00,79.8,73.1,30.01,East,94,3.0,4.0,80,0.00,,,0.01,WeatherCatV1.13B119,2013-05-24 18:19:00,
2013-05-24 13:24:00,79.2,73.6,30.01,ESE,112,1.0,1.0,83,0.00,,,0.01,WeatherCatV1.13B119,2013-05-24 18:24:00,
2013-05-24 13:29:00,79.3,74.0,30.01,SE,132,4.0,5.0,84,0.00,,,0.01,WeatherCatV1.13B119,2013-05-24 18:29:00,
2013-05-24 13:34:00,79.4,73.4,30.00,SE,136,2.0,4.0,82,0.00,,,0.01,WeatherCatV1.13B119,2013-05-24 18:34:00,
2013-05-24 13:39:00,79.4,73.4,30.00,ESE,110,2.0,5.0,82,0.00,,,0.01,WeatherCatV1.13B119,2013-05-24 18:39:00,
2013-05-24 13:44:00,79.3,72.9,30.00,ESE,116,2.0,4.0,81,0.00,,,0.01,WeatherCatV1.13B119,2013-05-24 18:44:00,
2013-05-24 13:49:00,79.0,73.0,30.00,SE,124,2.0,3.0,82,0.00,,,0.01,WeatherCatV1.13B119,2013-05-24 18:49:00,
2013-05-24 13:54:00,78.3,71.2,30.00,SSW,192,5.0,10.0,79,0.00,,,0.01,WeatherCatV1.13B119,2013-05-24 18:54:00,
2013-05-24 13:59:00,76.1,69.8,30.00,SW,218,0.0,5.0,81,0.00,,,0.02,WeatherCatV1.13B119,2013-05-24 18:59:00,
2013-05-24 14:04:00,74.4,69.2,30.01,South,186,1.0,6.0,84,0.10,,,0.03,WeatherCatV1.13B119,2013-05-24 19:04:00,
2013-05-24 14:09:00,73.5,69.0,30.00,SSE,167,0.0,1.0,86,0.10,,,0.04,WeatherCatV1.13B119,2013-05-24 19:09:00,
2013-05-24 14:14:00,73.2,69.4,30.01,SSE,160,2.0,3.0,88,0.08,,,0.04,WeatherCatV1.13B119,2013-05-24 19:14:00,
2013-05-24 14:19:00,72.8,69.4,30.03,ESE,106,3.0,3.0,89,0.64,,,0.07,WeatherCatV1.13B119,2013-05-24 19:19:00,
2013-05-24 14:24:00,72.1,68.7,30.04,SSW,204,5.0,14.0,89,2.28,,,0.12,WeatherCatV1.13B119,2013-05-24 19:24:00,
2013-05-24 14:29:00,70.0,66.3,30.02,WNW,295,1.0,4.0,88,3.18,,,0.37,WeatherCatV1.13B119,2013-05-24 19:29:00,
2013-05-24 14:34:00,69.3,66.6,30.02,SW,234,10.0,12.0,91,0.31,,,0.40,WeatherCatV1.13B119,2013-05-24 19:34:00,
2013-05-24 14:39:00,68.9,66.5,30.02,WSW,248,5.0,5.0,92,0.18,,,0.41,WeatherCatV1.13B119,2013-05-24 19:39:00,
2013-05-24 14:44:00,68.9,66.5,30.03,WSW,248,5.0,5.0,92,0.18,,,0.41,WeatherCatV1.13B119,2013-05-24 19:44:00,
2013-05-24 14:49:00,-999.0,-99.9,30.02,North,-999,-999.0,5.0,-999,0.00,,,0.41,WeatherCatV1.13B119,2013-05-24 19:49:00,
2013-05-24 14:54:00,-999.0,-99.9,30.01,North,-999,-999.0,0.0,-999,0.00,,,0.41,WeatherCatV1.13B119,2013-05-24 19:54:00,
2013-05-24 14:59:00,-999.0,-99.9,30.01,North,-999,-999.0,0.0,-999,0.00,,,0.41,WeatherCatV1.13B119,2013-05-24 19:59:00,
2013-05-24 15:04:00,-999.0,-99.9,30.02,North,-999,-999.0,0.0,-999,0.00,,,0.41,WeatherCatV1.13B119,2013-05-24 20:04:00,
2013-05-24 15:09:00,-999.0,-99.9,30.03,North,-999,-999.0,0.0,-999,0.00,,,0.41,WeatherCatV1.13B119,2013-05-24 20:09:00,
2013-05-24 15:14:00,-999.0,-99.9,30.05,North,-999,-999.0,0.0,-999,0.00,,,0.41,WeatherCatV1.13B119,2013-05-24 20:14:00,
2013-05-24 15:19:00,-999.0,-99.9,30.06,North,-999,-999.0,0.0,-999,0.00,,,0.41,WeatherCatV1.13B119,2013-05-24 20:19:00,
2013-05-24 15:24:00,-999.0,-99.9,30.08,North,-999,-999.0,0.0,-999,0.00,,,0.41,WeatherCatV1.13B119,2013-05-24 20:24:00,
2013-05-24 15:29:00,-999.0,-99.9,30.07,North,-999,-999.0,0.0,-999,0.00,,,0.41,WeatherCatV1.13B119,2013-05-24 20:29:00,
2013-05-24 15:34:00,-999.0,-99.9,30.05,North,-999,-999.0,0.0,-999,0.00,,,0.41,WeatherCatV1.13B119,2013-05-24 20:34:00,
2013-05-24 15:39:00,-999.0,-99.9,30.04,North,-999,-999.0,0.0,-999,0.00,,,0.41,WeatherCatV1.13B119,2013-05-24 20:39:00,
2013-05-24 15:44:00,-999.0,-99.9,30.04,North,-999,-999.0,0.0,-999,0.00,,,0.41,WeatherCatV1.13B119,2013-05-24 20:44:00,
2013-05-24 15:49:00,-999.0,-99.9,30.04,North,-999,-999.0,0.0,-999,0.00,,,0.41,WeatherCatV1.13B119,2013-05-24 20:49:00,
2013-05-24 15:54:00,-999.0,-99.9,30.04,North,-999,-999.0,0.0,-999,0.00,,,0.41,WeatherCatV1.13B119,2013-05-24 20:54:00,
2013-05-24 15:59:00,-999.0,-99.9,30.03,North,-999,-999.0,0.0,-999,0.00,,,0.41,WeatherCatV1.13B119,2013-05-24 20:59:00,
2013-05-24 16:04:00,-999.0,-99.9,30.03,North,-999,-999.0,0.0,-999,0.00,,,0.41,WeatherCatV1.13B119,2013-05-24 21:04:00,
2013-05-24 16:09:00,-999.0,-99.9,30.03,North,-999,-999.0,0.0,-999,0.00,,,0.41,WeatherCatV1.13B119,2013-05-24 21:09:00,
2013-05-24 16:14:00,-999.0,-99.9,30.03,North,-999,-999.0,0.0,-999,0.00,,,0.41,WeatherCatV1.13B119,2013-05-24 21:14:00,
2013-05-24 16:19:00,-999.0,-99.9,30.02,North,-999,-999.0,0.0,-999,0.00,,,0.41,WeatherCatV1.13B119,2013-05-24 21:19:00,
2013-05-24 16:24:00,-999.0,-99.9,30.02,North,-999,-999.0,0.0,-999,0.00,,,0.41,WeatherCatV1.13B119,2013-05-24 21:24:00,
2013-05-24 16:29:00,-999.0,-99.9,30.02,North,-999,-999.0,0.0,-999,0.00,,,0.41,WeatherCatV1.13B119,2013-05-24 21:29:00,
2013-05-24 16:34:00,-999.0,-99.9,30.01,North,-999,-999.0,0.0,-999,0.00,,,0.41,WeatherCatV1.13B119,2013-05-24 21:34:00,
2013-05-24 16:39:00,-999.0,-99.9,30.01,North,-999,-999.0,0.0,-999,0.00,,,0.41,WeatherCatV1.13B119,2013-05-24 21:39:00,
2013-05-24 16:44:00,-999.0,-99.9,30.00,North,-999,-999.0,0.0,-999,0.00,,,0.41,WeatherCatV1.13B119,2013-05-24 21:44:00,
2013-05-24 16:49:00,-999.0,-99.9,30.00,North,-999,-999.0,0.0,-999,0.00,,,0.41,WeatherCatV1.13B119,2013-05-24 21:49:00,
2013-05-24 16:54:00,-999.0,-99.9,30.00,North,-999,-999.0,0.0,-999,0.00,,,0.41,WeatherCatV1.13B119,2013-05-24 21:54:00,
2013-05-24 16:59:00,-999.0,-99.9,29.99,North,-999,-999.0,0.0,-999,0.00,,,0.41,WeatherCatV1.13B119,2013-05-24 21:59:00,
2013-05-24 17:04:00,-999.0,-99.9,29.99,North,-999,-999.0,0.0,-999,0.00,,,0.41,WeatherCatV1.13B119,2013-05-24 22:04:00,
2013-05-24 17:09:00,-999.0,-99.9,29.99,North,-999,-999.0,0.0,-999,0.00,,,0.41,WeatherCatV1.13B119,2013-05-24 22:09:00,
2013-05-24 17:14:00,-999.0,-99.9,29.98,North,-999,-999.0,0.0,-999,0.00,,,0.41,WeatherCatV1.13B119,2013-05-24 22:14:00,
2013-05-24 17:19:00,-999.0,-99.9,29.97,North,-999,-999.0,0.0,-999,0.00,,,0.41,WeatherCatV1.13B119,2013-05-24 22:19:00,
2013-05-24 17:24:00,-999.0,-99.9,29.98,North,-999,-999.0,0.0,-999,0.00,,,0.41,WeatherCatV1.13B119,2013-05-24 22:24:00,
2013-05-24 17:29:00,-999.0,-99.9,29.99,North,-999,-999.0,0.0,-999,0.00,,,0.41,WeatherCatV1.13B119,2013-05-24 22:29:00,
2013-05-24 17:34:00,-999.0,-99.9,29.99,North,-999,-999.0,0.0,-999,0.00,,,0.41,WeatherCatV1.13B119,2013-05-24 22:34:00,
2013-05-24 17:39:00,-999.0,-99.9,29.99,North,-999,-999.0,0.0,-999,0.00,,,0.41,WeatherCatV1.13B119,2013-05-24 22:39:00,
2013-05-24 17:44:00,-999.0,-99.9,29.99,North,-999,-999.0,0.0,-999,0.00,,,0.41,WeatherCatV1.13B119,2013-05-24 22:44:00,
2013-05-24 17:49:00,-999.0,-99.9,30.00,North,-999,-999.0,0.0,-999,0.00,,,0.41,WeatherCatV1.13B119,2013-05-24 22:49:00,
2013-05-24 17:54:00,-999.0,-99.9,30.00,North,-999,-999.0,0.0,-999,0.00,,,0.41,WeatherCatV1.13B119,2013-05-24 22:54:00,
2013-05-24 17:59:00,-999.0,-99.9,30.00,North,-999,-999.0,0.0,-999,0.00,,,0.41,WeatherCatV1.13B119,2013-05-24 22:59:00,
2013-05-24 18:04:00,-999.0,-99.9,30.00,North,-999,-999.0,0.0,-999,0.00,,,0.41,WeatherCatV1.13B119,2013-05-24 23:04:00,
2013-05-24 18:09:00,-999.0,-99.9,30.01,North,-999,-999.0,0.0,-999,0.00,,,0.41,WeatherCatV1.13B119,2013-05-24 23:09:00,
2013-05-24 18:14:00,-999.0,-99.9,30.01,North,-999,-999.0,0.0,-999,0.00,,,0.41,WeatherCatV1.13B119,2013-05-24 23:14:00,
2013-05-24 18:19:00,-999.0,-99.9,30.02,North,-999,-999.0,0.0,-999,0.00,,,0.41,WeatherCatV1.13B119,2013-05-24 23:19:00,
2013-05-24 18:24:00,-999.0,-99.9,30.05,North,-999,-999.0,0.0,-999,0.00,,,0.41,WeatherCatV1.13B119,2013-05-24 23:24:00,
2013-05-24 18:29:00,-999.0,-99.9,30.06,North,-999,-999.0,0.0,-999,0.00,,,0.41,WeatherCatV1.13B119,2013-05-24 23:29:00,
2013-05-24 18:34:00,-999.0,-99.9,30.05,North,-999,-999.0,0.0,-999,0.00,,,0.41,WeatherCatV1.13B119,2013-05-24 23:34:00,
2013-05-24 18:39:00,-999.0,-99.9,30.06,North,-999,-999.0,0.0,-999,0.00,,,0.41,WeatherCatV1.13B119,2013-05-24 23:39:00,
2013-05-24 18:44:00,-999.0,-99.9,30.05,North,-999,-999.0,0.0,-999,0.00,,,0.41,WeatherCatV1.13B119,2013-05-24 23:44:00,
2013-05-24 18:49:00,-999.0,-99.9,30.04,North,-999,-999.0,0.0,-999,0.00,,,0.41,WeatherCatV1.13B119,2013-05-24 23:49:00,
2013-05-24 18:54:00,-999.0,-99.9,30.04,North,-999,-999.0,0.0,-999,0.00,,,0.41,WeatherCatV1.13B119,2013-05-24 23:54:00,
2013-05-24 18:59:00,-999.0,-99.9,30.04,North,-999,-999.0,0.0,-999,0.00,,,0.41,WeatherCatV1.13B119,2013-05-24 23:59:00,
2013-05-24 19:04:00,-999.0,-99.9,30.03,North,-999,-999.0,0.0,-999,0.00,,,0.41,WeatherCatV1.13B119,2013-05-25 00:04:00,
2013-05-24 19:09:00,-999.0,-99.9,30.03,North,-999,-999.0,0.0,-999,0.00,,,0.41,WeatherCatV1.13B119,2013-05-25 00:09:00,
2013-05-24 19:14:00,-999.0,-99.9,30.02,North,-999,-999.0,0.0,-999,0.00,,,0.41,WeatherCatV1.13B119,2013-05-25 00:14:00,
2013-05-24 19:19:00,-999.0,-99.9,30.02,North,-999,-999.0,0.0,-999,0.00,,,0.41,WeatherCatV1.13B119,2013-05-25 00:19:00,
2013-05-24 19:24:00,-999.0,-99.9,30.01,North,-999,-999.0,0.0,-999,0.00,,,0.41,WeatherCatV1.13B119,2013-05-25 00:24:00,
2013-05-24 19:29:00,-999.0,-99.9,30.01,North,-999,-999.0,0.0,-999,0.00,,,0.41,WeatherCatV1.13B119,2013-05-25 00:29:00,
2013-05-24 19:34:00,-999.0,-99.9,30.01,North,-999,-999.0,0.0,-999,0.00,,,0.41,WeatherCatV1.13B119,2013-05-25 00:34:00,
2013-05-24 19:39:00,-999.0,-99.9,30.01,North,-999,-999.0,0.0,-999,0.00,,,0.41,WeatherCatV1.13B119,2013-05-25 00:39:00,
2013-05-24 19:44:00,-999.0,-99.9,30.01,North,-999,-999.0,0.0,-999,0.00,,,0.41,WeatherCatV1.13B119,2013-05-25 00:44:00,
2013-05-24 19:49:00,-999.0,-99.9,30.01,North,-999,-999.0,0.0,-999,0.00,,,0.41,WeatherCatV1.13B119,2013-05-25 00:49:00,
2013-05-24 19:54:00,-999.0,-99.9,30.01,North,-999,-999.0,0.0,-999,0.00,,,0.41,WeatherCatV1.13B119,2013-05-25 00:54:00,
2013-05-24 19:59:00,-999.0,-99.9,30.01,North,-999,-999.0,0.0,-999,0.00,,,0.41,WeatherCatV1.13B119,2013-05-25 00:59:00,
2013-05-24 20:04:00,-999.0,-99.9,30.01,North,-999,-999.0,0.0,-999,0.00,,,0.41,WeatherCatV1.13B119,2013-05-25 01:04:00,
2013-05-24 20:09:00,-999.0,-99.9,30.01,North,-999,-999.0,0.0,-999,0.00,,,0.41,WeatherCatV1.13B119,2013-05-25 01:09:00,
2013-05-24 20:14:00,-999.0,-99.9,30.02,North,-999,-999.0,0.0,-999,0.00,,,0.41,WeatherCatV1.13B119,2013-05-25 01:14:00,
2013-05-24 20:19:00,-999.0,-99.9,30.02,North,-999,-999.0,0.0,-999,0.00,,,0.41,WeatherCatV1.13B119,2013-05-25 01:19:00,
2013-05-24 20:24:00,-999.0,-99.9,30.02,North,-999,-999.0,0.0,-999,0.00,,,0.41,WeatherCatV1.13B119,2013-05-25 01:24:00,
2013-05-24 20:29:00,-999.0,-99.9,30.02,North,-999,-999.0,0.0,-999,0.00,,,0.41,WeatherCatV1.13B119,2013-05-25 01:29:00,
2013-05-24 20:34:00,-999.0,-99.9,30.02,North,-999,-999.0,0.0,-999,0.00,,,0.41,WeatherCatV1.13B119,2013-05-25 01:34:00,
2013-05-24 20:39:00,-999.0,-99.9,30.02,North,-999,-999.0,0.0,-999,0.00,,,0.41,WeatherCatV1.13B119,2013-05-25 01:39:00,
2013-05-24 20:44:00,-999.0,-99.9,30.03,North,-999,-999.0,0.0,-999,0.00,,,0.41,WeatherCatV1.13B119,2013-05-25 01:44:00,
2013-05-24 20:49:00,-999.0,-99.9,30.03,North,-999,-999.0,0.0,-999,0.00,,,0.41,WeatherCatV1.13B119,2013-05-25 01:49:00,
2013-05-24 20:54:00,-999.0,-99.9,30.03,North,-999,-999.0,0.0,-999,0.00,,,0.41,WeatherCatV1.13B119,2013-05-25 01:54:00,
2013-05-24 20:59:00,-999.0,-99.9,30.03,North,-999,-999.0,0.0,-999,0.00,,,0.41,WeatherCatV1.13B119,2013-05-25 01:59:00,
2013-05-24 21:04:00,-999.0,-99.9,30.03,North,-999,-999.0,0.0,-999,0.00,,,0.41,WeatherCatV1.13B119,2013-05-25 02:04:00,
2013-05-24 21:09:00,-999.0,-99.9,30.03,North,-999,-999.0,0.0,-999,0.00,,,0.41,WeatherCatV1.13B119,2013-05-25 02:09:00,
2013-05-24 21:14:00,-999.0,-99.9,30.03,North,-999,-999.0,0.0,-999,0.00,,,0.41,WeatherCatV1.13B119,2013-05-25 02:14:00,
2013-05-24 21:19:00,-999.0,-99.9,30.03,North,-999,-999.0,0.0,-999,0.00,,,0.41,WeatherCatV1.13B119,2013-05-25 02:19:00,
2013-05-24 21:24:00,-999.0,-99.9,30.04,North,-999,-999.0,0.0,-999,0.00,,,0.41,WeatherCatV1.13B119,2013-05-25 02:24:00,
2013-05-24 21:29:00,-999.0,-99.9,30.04,North,-999,-999.0,0.0,-999,0.00,,,0.41,WeatherCatV1.13B119,2013-05-25 02:29:00,
2013-05-24 21:34:00,-999.0,-99.9,30.05,North,-999,-999.0,0.0,-999,0.00,,,0.41,WeatherCatV1.13B119,2013-05-25 02:34:00,
2013-05-24 21:39:00,-999.0,-99.9,30.05,North,-999,-999.0,0.0,-999,0.00,,,0.41,WeatherCatV1.13B119,2013-05-25 02:39:00,
2013-05-24 21:44:00,-999.0,-99.9,30.05,North,-999,-999.0,0.0,-999,0.00,,,0.41,WeatherCatV1.13B119,2013-05-25 02:44:00,
2013-05-24 21:49:00,-999.0,-99.9,30.05,North,-999,-999.0,0.0,-999,0.00,,,0.41,WeatherCatV1.13B119,2013-05-25 02:49:00,
2013-05-24 21:54:00,-999.0,-99.9,30.06,North,-999,-999.0,0.0,-999,0.00,,,0.41,WeatherCatV1.13B119,2013-05-25 02:54:00,
2013-05-24 21:59:00,-999.0,-99.9,30.06,North,-999,-999.0,0.0,-999,0.00,,,0.41,WeatherCatV1.13B119,2013-05-25 02:59:00,
2013-05-24 22:04:00,-999.0,-99.9,30.06,North,-999,-999.0,0.0,-999,0.00,,,0.41,WeatherCatV1.13B119,2013-05-25 03:04:00,
2013-05-24 22:09:00,-999.0,-99.9,30.06,North,-999,-999.0,0.0,-999,0.00,,,0.41,WeatherCatV1.13B119,2013-05-25 03:09:00,
2013-05-24 22:14:00,-999.0,-99.9,30.06,North,-999,-999.0,0.0,-999,0.00,,,0.41,WeatherCatV1.13B119,2013-05-25 03:14:00,
2013-05-24 22:19:00,-999.0,-99.9,30.06,North,-999,-999.0,0.0,-999,0.00,,,0.41,WeatherCatV1.13B119,2013-05-25 03:19:00,
2013-05-24 22:24:00,-999.0,-99.9,30.05,North,-999,-999.0,0.0,-999,0.00,,,0.41,WeatherCatV1.13B119,2013-05-25 03:24:00,
2013-05-24 22:29:00,-999.0,-99.9,30.06,North,-999,-999.0,0.0,-999,0.00,,,0.41,WeatherCatV1.13B119,2013-05-25 03:29:00,
2013-05-24 22:34:00,-999.0,-99.9,30.05,North,-999,-999.0,0.0,-999,0.00,,,0.41,WeatherCatV1.13B119,2013-05-25 03:34:00,
2013-05-24 22:39:00,-999.0,-99.9,30.05,North,-999,-999.0,0.0,-999,0.00,,,0.41,WeatherCatV1.13B119,2013-05-25 03:39:00,
2013-05-24 22:44:00,-999.0,-99.9,30.05,North,-999,-999.0,0.0,-999,0.00,,,0.41,WeatherCatV1.13B119,2013-05-25 03:44:00,
2013-05-24 22:49:00,-999.0,-99.9,30.05,North,-999,-999.0,0.0,-999,0.00,,,0.41,WeatherCatV1.13B119,2013-05-25 03:49:00,
2013-05-24 22:54:00,-999.0,-99.9,30.06,North,-999,-999.0,0.0,-999,0.00,,,0.41,WeatherCatV1.13B119,2013-05-25 03:54:00,
2013-05-24 22:59:00,-999.0,-99.9,30.06,North,-999,-999.0,0.0,-999,0.00,,,0.41,WeatherCatV1.13B119,2013-05-25 03:59:00,
2013-05-24 23:01:00,-999.0,-99.9,30.06,North,-999,-999.0,0.0,-999,0.00,,,0.41,WeatherCatV1.13B119,2013-05-25 04:01:00,
2013-05-24 23:06:00,-999.0,-99.9,30.07,North,-999,-999.0,0.0,-999,0.00,,,0.41,WeatherCatV1.13B119,2013-05-25 04:06:00,
2013-05-24 23:11:00,-999.0,-99.9,30.07,North,-999,-999.0,0.0,-999,0.00,,,0.41,WeatherCatV1.13B119,2013-05-25 04:11:00,
2013-05-24 23:16:00,-999.0,-99.9,30.06,North,-999,-999.0,0.0,-999,0.00,,,0.41,WeatherCatV1.13B119,2013-05-25 04:16:00,
2013-05-24 23:21:00,-999.0,-99.9,30.06,North,-999,-999.0,0.0,-999,0.00,,,0.41,WeatherCatV1.13B119,2013-05-25 04:21:00,
2013-05-24 23:26:00,-999.0,-99.9,30.06,North,-999,-999.0,0.0,-999,0.00,,,0.41,WeatherCatV1.13B119,2013-05-25 04:26:00,
2013-05-24 23:31:00,-999.0,-99.9,30.06,North,-999,-999.0,0.0,-999,0.00,,,0.41,WeatherCatV1.13B119,2013-05-25 04:31:00,
2013-05-24 23:36:00,-999.0,-99.9,30.06,North,-999,-999.0,0.0,-999,0.00,,,0.41,WeatherCatV1.13B119,2013-05-25 04:36:00,
2013-05-24 23:39:00,-999.0,-99.9,30.07,North,-999,-999.0,0.0,-999,0.00,,,0.41,WeatherCatV1.13B119,2013-05-25 04:39:00,
2013-05-24 23:44:00,-999.0,-99.9,30.07,North,-999,-999.0,0.0,-999,0.00,,,0.41,WeatherCatV1.13B119,2013-05-25 04:44:00,
2013-05-24 23:49:00,-999.0,-99.9,30.07,North,-999,-999.0,0.0,-999,0.00,,,0.41,WeatherCatV1.13B119,2013-05-25 04:49:00,
2013-05-24 23:54:00,-999.0,-99.9,30.07,North,-999,-999.0,0.0,-999,0.00,,,0.41,WeatherCatV1.13B119,2013-05-25 04:54:00,
2013-05-24 23:59:00,-999.0,-99.9,30.06,North,-999,-999.0,0.0,-999,0.00,,,0.41,WeatherCatV1.13B119,2013-05-25 04:59:00,